createdAt,value
2017-10-05T00:00:37.722Z,10.87
2017-10-05T00:01:38.296Z,10.86
2017-10-05T00:02:38.000Z,10.89
2017-10-05T00:03:37.735Z,10.90
2017-10-05T00:04:38.622Z,10.90
2017-10-05T00:05:38.169Z,10.90
2017-10-05T00:06:37.759Z,10.90
2017-10-05T00:07:38.310Z,10.90
2017-10-05T00:08:37.716Z,10.89
2017-10-05T00:09:37.973Z,10.89
2017-10-05T00:10:38.171Z,10.90
2017-10-05T00:11:37.805Z,10.90
2017-10-05T00:12:37.550Z,10.90
2017-10-05T00:13:38.561Z,10.90
2017-10-05T00:14:37.842Z,10.89
2017-10-05T00:15:38.230Z,10.92
2017-10-05T00:16:38.071Z,10.92
2017-10-05T00:17:37.627Z,10.92
2017-10-05T00:18:38.079Z,10.92
2017-10-05T00:19:37.320Z,10.92
2017-10-05T00:20:39.047Z,10.93
2017-10-05T00:21:37.722Z,10.93
2017-10-05T00:22:38.303Z,10.94
2017-10-05T00:23:37.212Z,10.94
2017-10-05T00:24:37.437Z,10.96
2017-10-05T00:25:37.539Z,10.96
2017-10-05T00:26:37.960Z,10.94
2017-10-05T00:27:37.500Z,10.97
2017-10-05T00:28:37.756Z,10.97
2017-10-05T00:29:37.399Z,11.00
2017-10-05T00:30:38.005Z,10.99
2017-10-05T00:31:37.582Z,10.99
2017-10-05T00:32:38.083Z,11.02
2017-10-05T00:33:37.575Z,11.04
2017-10-05T00:34:38.163Z,11.02
2017-10-05T00:35:38.130Z,11.02
2017-10-05T00:36:37.813Z,11.05
2017-10-05T00:37:38.342Z,11.07
2017-10-05T00:38:37.864Z,11.05
2017-10-05T00:39:37.438Z,11.07
2017-10-05T00:40:37.743Z,11.10
2017-10-05T00:41:38.240Z,11.11
2017-10-05T00:42:37.907Z,11.10
2017-10-05T00:43:37.047Z,11.10
2017-10-05T00:44:37.527Z,11.10
2017-10-05T00:45:37.835Z,11.11
2017-10-05T00:46:37.539Z,11.12
2017-10-05T00:47:37.773Z,11.12
2017-10-05T00:48:37.474Z,11.12
2017-10-05T00:49:37.644Z,11.11
2017-10-05T00:50:38.256Z,11.11
2017-10-05T00:51:37.790Z,11.11
2017-10-05T00:52:37.397Z,11.12
2017-10-05T00:53:37.945Z,11.10
2017-10-05T00:54:37.500Z,11.11
2017-10-05T00:55:37.914Z,11.11
2017-10-05T00:56:37.544Z,11.10
2017-10-05T00:57:37.459Z,11.08
2017-10-05T00:58:38.089Z,11.07
2017-10-05T00:59:37.242Z,11.05
2017-10-05T01:00:37.716Z,11.04
2017-10-05T01:01:37.966Z,11.02
2017-10-05T01:02:37.510Z,11.02
2017-10-05T01:03:37.779Z,11.02
2017-10-05T01:04:37.347Z,11.02
2017-10-05T01:05:37.562Z,11.00
2017-10-05T01:06:37.842Z,10.99
2017-10-05T01:07:37.452Z,10.99
2017-10-05T01:08:37.974Z,10.97
2017-10-05T01:09:37.617Z,10.99
2017-10-05T01:10:37.430Z,10.99
2017-10-05T01:11:38.550Z,11.00
2017-10-05T01:12:38.173Z,10.97
2017-10-05T01:13:37.512Z,10.99
2017-10-05T01:14:38.149Z,11.00
2017-10-05T01:15:37.334Z,11.00
2017-10-05T01:16:37.719Z,11.02
2017-10-05T01:17:37.863Z,11.02
2017-10-05T01:18:37.551Z,11.00
2017-10-05T01:19:38.108Z,11.02
2017-10-05T01:20:37.378Z,11.02
2017-10-05T01:21:38.221Z,11.02
2017-10-05T01:22:38.308Z,11.04
2017-10-05T01:23:37.909Z,11.04
2017-10-05T01:24:37.154Z,11.05
2017-10-05T01:25:37.837Z,11.05
2017-10-05T01:26:37.086Z,11.05
2017-10-05T01:27:37.790Z,11.05
2017-10-05T01:28:37.424Z,11.05
2017-10-05T01:29:37.600Z,11.07
2017-10-05T01:30:37.795Z,11.07
2017-10-05T01:31:37.086Z,11.08
2017-10-05T01:32:37.781Z,11.07
2017-10-05T01:33:37.369Z,11.07
2017-10-05T01:34:37.994Z,11.08
2017-10-05T01:35:36.988Z,11.08
2017-10-05T01:36:37.381Z,11.08
2017-10-05T01:37:38.381Z,11.08
2017-10-05T01:38:37.498Z,11.08
2017-10-05T01:39:38.157Z,11.07
2017-10-05T01:40:37.291Z,11.04
2017-10-05T01:41:37.884Z,11.04
2017-10-05T01:42:37.456Z,11.02
2017-10-05T01:43:38.032Z,11.00
2017-10-05T01:44:37.627Z,11.00
2017-10-05T01:45:37.919Z,11.00
2017-10-05T01:46:38.269Z,10.97
2017-10-05T01:47:37.526Z,10.97
2017-10-05T01:48:37.720Z,10.97
2017-10-05T01:49:38.267Z,10.96
2017-10-05T01:50:37.398Z,10.96
2017-10-05T01:51:37.967Z,10.94
2017-10-05T01:52:37.044Z,10.94
2017-10-05T01:53:37.037Z,10.93
2017-10-05T01:54:37.758Z,10.93
2017-10-05T01:55:37.517Z,10.93
2017-10-05T01:56:38.291Z,10.93
2017-10-05T01:57:38.247Z,10.92
2017-10-05T01:58:37.570Z,10.90
2017-10-05T01:59:37.920Z,10.90
2017-10-05T02:00:37.276Z,10.92
2017-10-05T02:01:37.870Z,10.89
2017-10-05T02:02:38.264Z,10.89
2017-10-05T02:03:37.828Z,10.89
2017-10-05T02:04:37.760Z,10.89
2017-10-05T02:05:37.316Z,10.87
2017-10-05T02:06:37.879Z,10.87
2017-10-05T02:07:37.743Z,10.86
2017-10-05T02:08:37.411Z,10.84
2017-10-05T02:09:37.921Z,10.84
2017-10-05T02:10:37.159Z,10.84
2017-10-05T02:11:37.691Z,10.87
2017-10-05T02:12:37.531Z,10.84
2017-10-05T02:13:37.869Z,10.84
2017-10-05T02:14:37.940Z,10.84
2017-10-05T02:15:37.448Z,10.82
2017-10-05T02:16:37.753Z,10.84
2017-10-05T02:17:36.998Z,10.84
2017-10-05T02:18:37.114Z,10.82
2017-10-05T02:19:37.710Z,10.82
2017-10-05T02:20:37.659Z,10.82
2017-10-05T02:21:38.246Z,10.82
2017-10-05T02:22:37.850Z,10.82
2017-10-05T02:23:37.937Z,10.82
2017-10-05T02:24:37.415Z,10.82
2017-10-05T02:25:38.079Z,10.82
2017-10-05T02:26:37.622Z,10.81
2017-10-05T02:27:37.984Z,10.82
2017-10-05T02:28:37.547Z,10.84
2017-10-05T02:29:37.884Z,10.82
2017-10-05T02:30:37.478Z,10.82
2017-10-05T02:31:38.237Z,10.81
2017-10-05T02:32:37.662Z,10.84
2017-10-05T02:33:36.993Z,10.82
2017-10-05T02:34:37.325Z,10.82
2017-10-05T02:35:37.712Z,10.82
2017-10-05T02:36:36.993Z,10.84
2017-10-05T02:37:37.630Z,10.82
2017-10-05T02:38:37.368Z,10.82
2017-10-05T02:39:37.725Z,10.82
2017-10-05T02:40:37.015Z,10.82
2017-10-05T02:41:37.409Z,10.84
2017-10-05T02:42:38.047Z,10.84
2017-10-05T02:43:37.449Z,10.82
2017-10-05T02:44:38.365Z,10.82
2017-10-05T02:45:37.701Z,10.82
2017-10-05T02:46:38.011Z,10.82
2017-10-05T02:47:37.783Z,10.82
2017-10-05T02:48:37.427Z,10.82
2017-10-05T02:49:38.200Z,10.84
2017-10-05T02:50:38.328Z,10.84
2017-10-05T02:51:38.073Z,10.82
2017-10-05T02:52:37.543Z,10.84
2017-10-05T02:53:37.943Z,10.84
2017-10-05T02:54:37.614Z,10.81
2017-10-05T02:55:36.933Z,10.82
2017-10-05T02:56:37.987Z,10.82
2017-10-05T02:57:37.719Z,10.81
2017-10-05T02:58:37.156Z,10.81
2017-10-05T02:59:37.791Z,10.82
2017-10-05T03:00:37.049Z,10.82
2017-10-05T03:01:37.603Z,10.82
2017-10-05T03:02:37.041Z,10.81
2017-10-05T03:03:37.624Z,10.81
2017-10-05T03:04:38.078Z,10.82
2017-10-05T03:05:37.587Z,10.81
2017-10-05T03:06:38.139Z,10.81
2017-10-05T03:07:37.371Z,10.81
2017-10-05T03:08:37.762Z,10.81
2017-10-05T03:09:37.728Z,10.82
2017-10-05T03:10:37.017Z,10.81
2017-10-05T03:11:37.982Z,10.82
2017-10-05T03:12:37.400Z,10.79
2017-10-05T03:13:37.781Z,10.81
2017-10-05T03:14:37.712Z,10.81
2017-10-05T03:15:37.409Z,10.81
2017-10-05T03:16:38.558Z,10.81
2017-10-05T03:17:37.607Z,10.79
2017-10-05T03:18:37.340Z,10.79
2017-10-05T03:19:37.993Z,10.79
2017-10-05T03:20:37.598Z,10.78
2017-10-05T03:21:37.304Z,10.79
2017-10-05T03:22:38.147Z,10.79
2017-10-05T03:23:37.658Z,10.78
2017-10-05T03:24:36.986Z,10.78
2017-10-05T03:25:37.345Z,10.76
2017-10-05T03:26:37.991Z,10.78
2017-10-05T03:27:37.913Z,10.76
2017-10-05T03:28:37.434Z,10.76
2017-10-05T03:29:38.024Z,10.76
2017-10-05T03:30:37.709Z,10.75
2017-10-05T03:31:37.301Z,10.75
2017-10-05T03:32:38.400Z,10.74
2017-10-05T03:33:38.062Z,10.75
2017-10-05T03:34:37.490Z,10.75
2017-10-05T03:35:37.910Z,10.74
2017-10-05T03:36:37.352Z,10.74
2017-10-05T03:37:38.378Z,10.74
2017-10-05T03:38:37.695Z,10.74
2017-10-05T03:39:37.461Z,10.74
2017-10-05T03:40:37.846Z,10.72
2017-10-05T03:41:37.371Z,10.74
2017-10-05T03:42:39.361Z,10.72
2017-10-05T03:43:37.369Z,10.74
2017-10-05T03:44:37.958Z,10.72
2017-10-05T03:45:37.565Z,10.74
2017-10-05T03:46:37.308Z,10.72
2017-10-05T03:47:37.250Z,10.74
2017-10-05T03:48:37.590Z,10.72
2017-10-05T03:49:37.264Z,10.71
2017-10-05T03:50:37.962Z,10.71
2017-10-05T03:51:37.736Z,10.71
2017-10-05T03:52:37.010Z,10.71
2017-10-05T03:53:37.459Z,10.72
2017-10-05T03:54:38.083Z,10.71
2017-10-05T03:55:37.630Z,10.71
2017-10-05T03:56:36.923Z,10.69
2017-10-05T03:57:37.185Z,10.71
2017-10-05T03:58:37.985Z,10.69
2017-10-05T03:59:37.543Z,10.71
2017-10-05T04:00:37.940Z,10.71
2017-10-05T04:01:37.267Z,10.71
2017-10-05T04:02:37.062Z,10.69
2017-10-05T04:03:37.642Z,10.71
2017-10-05T04:04:37.333Z,10.71
2017-10-05T04:05:37.746Z,10.71
2017-10-05T04:06:37.072Z,10.71
2017-10-05T04:07:37.235Z,10.71
2017-10-05T04:08:37.790Z,10.71
2017-10-05T04:09:37.405Z,10.71
2017-10-05T04:10:38.047Z,10.71
2017-10-05T04:11:37.040Z,10.69
2017-10-05T04:12:37.294Z,10.71
2017-10-05T04:13:37.986Z,10.71
2017-10-05T04:14:37.654Z,10.71
2017-10-05T04:15:36.956Z,10.71
2017-10-05T04:16:37.531Z,10.71
2017-10-05T04:17:37.703Z,10.72
2017-10-05T04:18:37.819Z,10.72
2017-10-05T04:19:37.334Z,10.74
2017-10-05T04:20:37.721Z,10.72
2017-10-05T04:21:36.968Z,10.72
2017-10-05T04:22:37.397Z,10.74
2017-10-05T04:23:37.421Z,10.72
2017-10-05T04:24:37.933Z,10.72
2017-10-05T04:25:37.531Z,10.74
2017-10-05T04:26:37.297Z,10.74
2017-10-05T04:27:37.522Z,10.72
2017-10-05T04:28:37.187Z,10.72
2017-10-05T04:29:37.741Z,10.74
2017-10-05T04:30:37.435Z,10.72
2017-10-05T04:31:37.577Z,10.71
2017-10-05T04:32:37.250Z,10.72
2017-10-05T04:33:37.842Z,10.71
2017-10-05T04:34:37.496Z,10.71
2017-10-05T04:35:37.592Z,10.72
2017-10-05T04:36:37.629Z,10.72
2017-10-05T04:37:36.736Z,10.72
2017-10-05T04:38:37.242Z,10.72
2017-10-05T04:39:37.432Z,10.72
2017-10-05T04:40:37.104Z,10.72
2017-10-05T04:41:37.689Z,10.74
2017-10-05T04:42:36.886Z,10.72
2017-10-05T04:43:37.122Z,10.72
2017-10-05T04:44:37.353Z,10.74
2017-10-05T04:45:37.465Z,10.74
2017-10-05T04:46:37.175Z,10.75
2017-10-05T04:47:37.322Z,10.74
2017-10-05T04:48:37.810Z,10.74
2017-10-05T04:49:37.177Z,10.75
2017-10-05T04:50:37.751Z,10.76
2017-10-05T04:51:37.066Z,10.76
2017-10-05T04:52:37.627Z,10.76
2017-10-05T04:53:37.045Z,10.78
2017-10-05T04:54:37.507Z,10.76
2017-10-05T04:55:37.700Z,10.78
2017-10-05T04:56:37.288Z,10.76
2017-10-05T04:57:37.509Z,10.78
2017-10-05T04:58:36.838Z,10.76
2017-10-05T04:59:37.012Z,10.79
2017-10-05T05:00:37.569Z,10.79
2017-10-05T05:01:37.099Z,10.79
2017-10-05T05:02:37.382Z,10.81
2017-10-05T05:03:37.408Z,10.82
2017-10-05T05:04:37.665Z,10.84
2017-10-05T05:05:37.156Z,10.84
2017-10-05T05:06:37.666Z,10.82
2017-10-05T05:07:36.764Z,10.84
2017-10-05T05:08:37.309Z,10.84
2017-10-05T05:09:37.492Z,10.84
2017-10-05T05:10:37.095Z,10.82
2017-10-05T05:11:37.500Z,10.84
2017-10-05T05:12:36.861Z,10.84
2017-10-05T05:13:37.444Z,10.86
2017-10-05T05:14:37.387Z,10.87
2017-10-05T05:15:37.631Z,10.86
2017-10-05T05:16:38.029Z,10.86
2017-10-05T05:17:37.922Z,10.89
2017-10-05T05:18:37.323Z,10.89
2017-10-05T05:19:37.144Z,10.89
2017-10-05T05:20:37.596Z,10.92
2017-10-05T05:21:37.302Z,10.92
2017-10-05T05:22:37.588Z,10.93
2017-10-05T05:23:37.170Z,10.93
2017-10-05T05:24:37.877Z,10.94
2017-10-05T05:25:37.639Z,10.94
2017-10-05T05:26:37.291Z,10.94
2017-10-05T05:27:38.011Z,10.94
2017-10-05T05:28:37.868Z,10.94
2017-10-05T05:29:37.433Z,10.96
2017-10-05T05:30:38.087Z,10.96
2017-10-05T05:31:37.759Z,10.97
2017-10-05T05:32:37.710Z,10.99
2017-10-05T05:33:38.035Z,11.00
2017-10-05T05:34:37.808Z,11.02
2017-10-05T05:35:37.054Z,11.02
2017-10-05T05:36:37.541Z,11.02
2017-10-05T05:37:37.234Z,11.04
2017-10-05T05:38:37.699Z,11.02
2017-10-05T05:39:37.322Z,11.02
2017-10-05T05:40:37.951Z,11.02
2017-10-05T05:41:37.593Z,11.02
2017-10-05T05:42:37.207Z,11.02
2017-10-05T05:43:37.687Z,11.02
2017-10-05T05:44:37.054Z,11.05
2017-10-05T05:45:37.839Z,11.08
2017-10-05T05:46:37.491Z,11.08
2017-10-05T05:47:36.913Z,11.08
2017-10-05T05:48:37.592Z,11.08
2017-10-05T05:49:37.419Z,11.08
2017-10-05T05:50:36.946Z,11.10
2017-10-05T05:51:37.485Z,11.11
2017-10-05T05:52:38.024Z,11.11
2017-10-05T05:53:37.687Z,11.12
2017-10-05T05:54:37.275Z,11.12
2017-10-05T05:55:38.048Z,11.12
2017-10-05T05:56:37.431Z,11.12
2017-10-05T05:57:37.211Z,11.14
2017-10-05T05:58:38.405Z,11.14
2017-10-05T05:59:37.264Z,11.14
2017-10-05T06:00:37.478Z,11.15
2017-10-05T06:01:37.220Z,11.15
2017-10-05T06:02:37.906Z,11.15
2017-10-05T06:03:37.961Z,11.15
2017-10-05T06:04:37.692Z,11.15
2017-10-05T06:05:37.099Z,11.17
2017-10-05T06:06:37.464Z,11.17
2017-10-05T06:07:37.052Z,11.17
2017-10-05T06:08:37.647Z,11.15
2017-10-05T06:09:37.108Z,11.15
2017-10-05T06:10:37.838Z,11.17
2017-10-05T06:11:37.692Z,11.18
2017-10-05T06:12:37.151Z,11.17
2017-10-05T06:13:38.060Z,11.18
2017-10-05T06:14:37.886Z,11.19
2017-10-05T06:15:37.625Z,11.22
2017-10-05T06:16:37.779Z,11.22
2017-10-05T06:17:37.485Z,11.22
2017-10-05T06:18:36.906Z,11.23
2017-10-05T06:19:37.628Z,11.22
2017-10-05T06:20:37.144Z,11.25
2017-10-05T06:21:37.664Z,11.25
2017-10-05T06:22:37.633Z,11.26
2017-10-05T06:23:37.409Z,11.26
2017-10-05T06:24:37.269Z,11.29
2017-10-05T06:25:38.479Z,11.29
2017-10-05T06:26:37.246Z,11.30
2017-10-05T06:27:38.308Z,11.32
2017-10-05T06:28:37.201Z,11.32
2017-10-05T06:29:37.912Z,11.32
2017-10-05T06:30:37.904Z,11.33
2017-10-05T06:31:38.270Z,11.35
2017-10-05T06:32:38.108Z,11.36
2017-10-05T06:33:37.302Z,11.40
2017-10-05T06:34:37.197Z,11.37
2017-10-05T06:35:38.072Z,11.41
2017-10-05T06:36:37.806Z,11.44
2017-10-05T06:37:37.716Z,11.43
2017-10-05T06:38:37.526Z,11.43
2017-10-05T06:39:37.430Z,11.44
2017-10-05T06:40:38.474Z,11.48
2017-10-05T06:41:36.780Z,11.50
2017-10-05T06:42:37.382Z,11.52
2017-10-05T06:43:36.861Z,11.52
2017-10-05T06:44:37.502Z,11.52
2017-10-05T06:45:37.205Z,11.55
2017-10-05T06:46:37.936Z,11.54
2017-10-05T06:47:37.487Z,11.55
2017-10-05T06:48:37.394Z,11.54
2017-10-05T06:49:38.155Z,11.55
2017-10-05T06:50:38.076Z,11.59
2017-10-05T06:51:37.919Z,11.60
2017-10-05T06:52:37.569Z,11.60
2017-10-05T06:53:36.951Z,11.60
2017-10-05T06:54:37.448Z,11.62
2017-10-05T06:55:37.177Z,11.63
2017-10-05T06:56:37.955Z,11.65
2017-10-05T06:57:37.752Z,11.66
2017-10-05T06:58:37.512Z,11.66
2017-10-05T06:59:37.062Z,11.69
2017-10-05T07:00:37.801Z,11.69
2017-10-05T07:01:37.972Z,11.69
2017-10-05T07:02:38.142Z,11.69
2017-10-05T07:03:38.015Z,11.68
2017-10-05T07:04:37.635Z,11.70
2017-10-05T07:05:37.437Z,11.69
2017-10-05T07:06:36.907Z,11.72
2017-10-05T07:07:37.647Z,11.75
2017-10-05T07:08:37.395Z,11.73
2017-10-05T07:09:38.093Z,11.75
2017-10-05T07:10:37.741Z,11.75
2017-10-05T07:11:37.470Z,11.75
2017-10-05T07:12:37.061Z,11.78
2017-10-05T07:13:37.211Z,11.78
2017-10-05T07:14:37.899Z,11.81
2017-10-05T07:15:37.633Z,11.83
2017-10-05T07:16:36.952Z,11.84
2017-10-05T07:17:37.238Z,11.86
2017-10-05T07:18:38.128Z,11.86
2017-10-05T07:19:37.777Z,11.87
2017-10-05T07:20:37.637Z,11.87
2017-10-05T07:21:37.270Z,11.88
2017-10-05T07:22:37.071Z,11.88
2017-10-05T07:23:38.033Z,11.90
2017-10-05T07:24:37.394Z,11.91
2017-10-05T07:25:37.276Z,11.88
2017-10-05T07:26:38.125Z,11.94
2017-10-05T07:27:38.039Z,11.94
2017-10-05T07:28:37.998Z,11.94
2017-10-05T07:29:37.502Z,11.95
2017-10-05T07:30:37.280Z,11.97
2017-10-05T07:31:38.096Z,11.99
2017-10-05T07:32:37.789Z,12.00
2017-10-05T07:33:37.877Z,12.02
2017-10-05T07:34:37.747Z,12.03
2017-10-05T07:35:37.604Z,12.03
2017-10-05T07:36:37.431Z,12.03
2017-10-05T07:37:37.102Z,12.03
2017-10-05T07:38:38.258Z,12.04
2017-10-05T07:39:37.317Z,12.07
2017-10-05T07:40:38.336Z,12.07
2017-10-05T07:41:36.906Z,12.07
2017-10-05T07:42:37.790Z,12.06
2017-10-05T07:43:38.150Z,12.07
2017-10-05T07:44:37.767Z,12.09
2017-10-05T07:45:37.716Z,12.09
2017-10-05T07:46:37.627Z,12.10
2017-10-05T07:47:37.734Z,12.12
2017-10-05T07:48:38.185Z,12.13
2017-10-05T07:49:37.924Z,12.12
2017-10-05T07:50:37.608Z,12.15
2017-10-05T07:51:38.409Z,12.15
2017-10-05T07:52:37.529Z,12.17
2017-10-05T07:53:37.523Z,12.17
2017-10-05T07:54:37.471Z,12.17
2017-10-05T07:55:38.105Z,12.17
2017-10-05T07:56:38.042Z,12.17
2017-10-05T07:57:37.594Z,12.18
2017-10-05T07:58:37.921Z,12.21
2017-10-05T07:59:37.490Z,12.24
2017-10-05T08:00:37.110Z,12.25
2017-10-05T08:01:37.596Z,12.27
2017-10-05T08:02:37.252Z,12.27
2017-10-05T08:03:38.027Z,12.27
2017-10-05T08:04:38.345Z,12.28
2017-10-05T08:05:37.094Z,12.28
2017-10-05T08:06:38.003Z,12.31
2017-10-05T08:07:37.790Z,12.32
2017-10-05T08:08:37.685Z,12.35
2017-10-05T08:09:37.924Z,12.39
2017-10-05T08:10:37.919Z,12.39
2017-10-05T08:11:37.873Z,12.39
2017-10-05T08:12:37.425Z,12.40
2017-10-05T08:13:37.276Z,12.43
2017-10-05T08:14:37.107Z,12.46
2017-10-05T08:15:38.477Z,12.47
2017-10-05T08:16:37.522Z,12.50
2017-10-05T08:17:38.504Z,12.53
2017-10-05T08:18:37.747Z,12.55
2017-10-05T08:19:37.516Z,12.58
2017-10-05T08:20:37.185Z,12.61
2017-10-05T08:21:38.123Z,12.61
2017-10-05T08:22:37.993Z,12.62
2017-10-05T08:23:37.587Z,12.62
2017-10-05T08:24:37.284Z,12.65
2017-10-05T08:25:38.164Z,12.67
2017-10-05T08:26:37.938Z,12.68
2017-10-05T08:27:37.962Z,12.70
2017-10-05T08:28:37.969Z,12.70
2017-10-05T08:29:37.790Z,12.73
2017-10-05T08:30:37.634Z,12.76
2017-10-05T08:31:37.321Z,12.78
2017-10-05T08:32:38.032Z,12.78
2017-10-05T08:33:37.972Z,12.78
2017-10-05T08:34:38.159Z,12.78
2017-10-05T08:35:37.324Z,12.80
2017-10-05T08:36:37.970Z,12.82
2017-10-05T08:37:38.437Z,12.85
2017-10-05T08:38:37.675Z,12.90
2017-10-05T08:39:37.333Z,12.95
2017-10-05T08:40:37.245Z,13.03
2017-10-05T08:41:38.074Z,13.09
2017-10-05T08:42:39.005Z,13.15
2017-10-05T08:43:38.703Z,13.20
2017-10-05T08:44:37.196Z,13.25
2017-10-05T08:45:38.084Z,13.33
2017-10-05T08:46:38.295Z,13.31
2017-10-05T08:47:38.389Z,13.31
2017-10-05T08:48:37.574Z,13.35
2017-10-05T08:49:37.504Z,13.37
2017-10-05T08:50:37.413Z,13.33
2017-10-05T08:51:37.441Z,13.35
2017-10-05T08:52:37.094Z,13.39
2017-10-05T08:53:38.221Z,13.46
2017-10-05T08:54:38.263Z,13.49
2017-10-05T08:55:37.358Z,13.59
2017-10-05T08:56:37.151Z,13.60
2017-10-05T08:57:38.194Z,13.60
2017-10-05T08:58:37.380Z,13.62
2017-10-05T08:59:37.515Z,13.63
2017-10-05T09:00:37.301Z,13.70
2017-10-05T09:01:38.041Z,13.75
2017-10-05T09:02:37.640Z,13.77
2017-10-05T09:03:37.329Z,13.77
2017-10-05T09:04:37.787Z,13.72
2017-10-05T09:05:37.689Z,13.71
2017-10-05T09:06:37.456Z,13.70
2017-10-05T09:07:36.848Z,13.72
2017-10-05T09:08:37.678Z,13.68
2017-10-05T09:09:37.435Z,13.68
2017-10-05T09:10:37.302Z,13.65
2017-10-05T09:11:36.797Z,13.62
2017-10-05T09:12:37.606Z,13.62
2017-10-05T09:13:37.401Z,13.68
2017-10-05T09:14:38.086Z,13.78
2017-10-05T09:15:37.744Z,13.86
2017-10-05T09:16:37.316Z,13.86
2017-10-05T09:17:38.113Z,13.87
2017-10-05T09:18:37.119Z,13.85
2017-10-05T09:19:37.136Z,13.86
2017-10-05T09:20:37.697Z,13.86
2017-10-05T09:21:37.447Z,13.86
2017-10-05T09:22:36.881Z,13.93
2017-10-05T09:23:37.542Z,13.97
2017-10-05T09:24:37.252Z,14.04
2017-10-05T09:25:38.168Z,14.11
2017-10-05T09:26:37.445Z,14.12
2017-10-05T09:27:37.469Z,14.12
2017-10-05T09:28:37.344Z,14.17
2017-10-05T09:29:37.306Z,14.37
2017-10-05T09:30:37.329Z,14.45
2017-10-05T09:31:37.988Z,14.36
2017-10-05T09:32:37.568Z,14.30
2017-10-05T09:33:37.309Z,14.26
2017-10-05T09:34:37.671Z,14.25
2017-10-05T09:35:37.576Z,14.25
2017-10-05T09:36:37.340Z,14.25
2017-10-05T09:37:37.392Z,14.30
2017-10-05T09:38:37.393Z,14.47
2017-10-05T09:39:38.051Z,14.72
2017-10-05T09:40:37.471Z,14.97
2017-10-05T09:41:37.338Z,14.97
2017-10-05T09:42:38.456Z,15.00
2017-10-05T09:43:37.343Z,15.04
2017-10-05T09:44:38.291Z,15.31
2017-10-05T09:45:38.253Z,17.64
2017-10-05T09:46:37.787Z,17.72
2017-10-05T09:47:37.848Z,17.30
2017-10-05T09:48:37.509Z,17.95
2017-10-05T09:49:37.654Z,16.96
2017-10-05T09:50:37.178Z,16.42
2017-10-05T09:51:37.755Z,16.51
2017-10-05T09:52:37.692Z,16.00
2017-10-05T09:53:37.318Z,15.84
2017-10-05T09:54:36.960Z,15.59
2017-10-05T09:55:37.665Z,15.43
2017-10-05T09:56:37.691Z,15.31
2017-10-05T09:57:37.539Z,15.19
2017-10-05T09:58:37.725Z,15.06
2017-10-05T09:59:37.495Z,15.00
2017-10-05T10:00:37.457Z,15.03
2017-10-05T10:01:37.237Z,15.22
2017-10-05T10:02:38.797Z,16.83
2017-10-05T10:03:37.757Z,15.95
2017-10-05T10:04:37.518Z,15.55
2017-10-05T10:05:37.292Z,15.25
2017-10-05T10:06:37.936Z,15.24
2017-10-05T10:07:38.663Z,15.11
2017-10-05T10:08:37.931Z,15.10
2017-10-05T10:09:37.826Z,15.31
2017-10-05T10:10:37.680Z,15.84
2017-10-05T10:11:37.409Z,15.72
2017-10-05T10:12:37.224Z,15.49
2017-10-05T10:13:38.257Z,15.47
2017-10-05T10:14:38.025Z,15.43
2017-10-05T10:15:37.868Z,15.37
2017-10-05T10:16:37.975Z,16.13
2017-10-05T10:17:37.972Z,16.97
2017-10-05T10:18:37.969Z,17.05
2017-10-05T10:19:37.641Z,16.49
2017-10-05T10:20:37.799Z,15.86
2017-10-05T10:21:37.688Z,15.68
2017-10-05T10:22:37.772Z,15.64
2017-10-05T10:23:38.764Z,15.51
2017-10-05T10:24:37.255Z,15.27
2017-10-05T10:25:37.427Z,15.09
2017-10-05T10:26:37.483Z,15.42
2017-10-05T10:27:38.066Z,15.42
2017-10-05T10:28:38.052Z,15.62
2017-10-05T10:29:37.987Z,15.49
2017-10-05T10:30:37.921Z,15.52
2017-10-05T10:31:37.858Z,15.72
2017-10-05T10:32:38.044Z,15.91
2017-10-05T10:33:37.994Z,15.90
2017-10-05T10:34:38.401Z,15.52
2017-10-05T10:35:37.243Z,15.14
2017-10-05T10:36:37.417Z,14.91
2017-10-05T10:37:37.325Z,14.63
2017-10-05T10:38:37.329Z,14.43
2017-10-05T10:39:37.609Z,14.25
2017-10-05T10:40:37.643Z,14.07
2017-10-05T10:41:37.689Z,14.00
2017-10-05T10:42:37.809Z,14.10
2017-10-05T10:43:39.320Z,14.18
2017-10-05T10:44:38.369Z,14.05
2017-10-05T10:45:37.295Z,13.99
2017-10-05T10:46:38.252Z,13.89
2017-10-05T10:47:37.316Z,13.78
2017-10-05T10:48:37.397Z,13.68
2017-10-05T10:49:37.314Z,13.52
2017-10-05T10:50:37.894Z,13.35
2017-10-05T10:51:37.639Z,13.23
2017-10-05T10:52:37.621Z,13.03
2017-10-05T10:53:37.676Z,13.04
2017-10-05T10:54:37.514Z,12.98
2017-10-05T10:55:37.440Z,12.85
2017-10-05T10:56:37.678Z,12.83
2017-10-05T10:57:38.773Z,12.78
2017-10-05T10:58:37.887Z,12.67
2017-10-05T10:59:37.769Z,12.61
2017-10-05T11:00:38.045Z,12.55
2017-10-05T11:01:38.037Z,12.61
2017-10-05T11:02:38.194Z,12.75
2017-10-05T11:03:37.171Z,12.80
2017-10-05T11:04:38.161Z,12.78
2017-10-05T11:05:38.113Z,12.80
2017-10-05T11:06:38.492Z,12.75
2017-10-05T11:07:37.295Z,12.73
2017-10-05T11:08:38.829Z,12.64
2017-10-05T11:09:37.780Z,12.62
2017-10-05T11:10:37.653Z,12.65
2017-10-05T11:11:38.213Z,12.67
2017-10-05T11:12:39.980Z,12.68
2017-10-05T11:13:38.049Z,12.61
2017-10-05T11:14:38.206Z,12.60
2017-10-05T11:15:38.542Z,12.49
2017-10-05T11:16:38.025Z,12.49
2017-10-05T11:17:38.016Z,12.36
2017-10-05T11:18:37.879Z,12.32
2017-10-05T11:19:39.269Z,12.29
2017-10-05T11:20:38.716Z,12.29
2017-10-05T11:21:37.990Z,12.40
2017-10-05T11:22:37.349Z,12.40
2017-10-05T11:23:38.204Z,12.37
2017-10-05T11:24:37.619Z,12.35
2017-10-05T11:25:37.687Z,12.35
2017-10-05T11:26:38.618Z,12.35
2017-10-05T11:27:37.822Z,12.32
2017-10-05T11:28:38.444Z,12.43
2017-10-05T11:29:37.763Z,12.43
2017-10-05T11:30:37.850Z,12.53
2017-10-05T11:31:38.363Z,12.54
2017-10-05T11:32:37.394Z,12.64
2017-10-05T11:33:37.628Z,12.86
2017-10-05T11:34:37.939Z,13.01
2017-10-05T11:35:38.356Z,13.15
2017-10-05T11:36:37.544Z,13.19
2017-10-05T11:37:37.532Z,13.16
2017-10-05T11:38:37.875Z,13.41
2017-10-05T11:39:37.517Z,13.25
2017-10-05T11:40:38.750Z,13.22
2017-10-05T11:41:37.986Z,13.19
2017-10-05T11:42:39.321Z,13.16
2017-10-05T11:43:37.947Z,13.12
2017-10-05T11:44:38.889Z,13.00
2017-10-05T11:45:38.959Z,12.82
2017-10-05T11:46:38.662Z,12.85
2017-10-05T11:47:37.891Z,12.85
2017-10-05T11:48:37.825Z,12.78
2017-10-05T11:49:41.669Z,12.64
2017-10-05T11:50:37.896Z,12.54
2017-10-05T11:51:38.643Z,12.50
2017-10-05T11:52:37.847Z,12.40
2017-10-05T11:53:37.928Z,12.35
2017-10-05T11:54:38.252Z,12.36
2017-10-05T11:55:37.126Z,12.65
2017-10-05T11:56:38.064Z,13.01
2017-10-05T11:57:37.553Z,13.09
2017-10-05T11:58:37.304Z,13.60
2017-10-05T11:59:37.039Z,13.57
2017-10-05T12:00:38.447Z,13.47
2017-10-05T12:01:37.546Z,13.47
2017-10-05T12:02:37.419Z,13.71
2017-10-05T12:03:38.364Z,13.93
2017-10-05T12:04:37.583Z,13.89
2017-10-05T12:05:39.146Z,13.77
2017-10-05T12:06:39.215Z,13.56
2017-10-05T12:07:37.829Z,13.42
2017-10-05T12:08:38.813Z,13.72
2017-10-05T12:09:37.801Z,14.35
2017-10-05T12:10:37.957Z,15.07
2017-10-05T12:11:38.199Z,15.88
2017-10-05T12:12:37.484Z,15.03
2017-10-05T12:13:39.043Z,15.37
2017-10-05T12:14:38.096Z,15.00
2017-10-05T12:15:38.734Z,14.51
2017-10-05T12:16:37.941Z,14.41
2017-10-05T12:17:38.035Z,14.44
2017-10-05T12:18:38.477Z,14.62
2017-10-05T12:19:37.422Z,14.86
2017-10-05T12:20:37.826Z,14.78
2017-10-05T12:21:37.830Z,14.26
2017-10-05T12:22:38.234Z,14.04
2017-10-05T12:23:38.562Z,14.07
2017-10-05T12:24:37.471Z,13.96
2017-10-05T12:25:37.539Z,13.96
2017-10-05T12:26:38.345Z,14.03
2017-10-05T12:27:37.719Z,13.95
2017-10-05T12:28:38.312Z,14.03
2017-10-05T12:29:37.234Z,13.95
2017-10-05T12:30:37.650Z,13.74
2017-10-05T12:31:38.441Z,13.53
2017-10-05T12:32:38.744Z,13.25
2017-10-05T12:33:37.343Z,12.94
2017-10-05T12:34:38.434Z,12.76
2017-10-05T12:35:38.880Z,12.61
2017-10-05T12:36:38.235Z,12.54
2017-10-05T12:37:38.200Z,12.54
2017-10-05T12:38:38.418Z,12.36
2017-10-05T12:39:37.335Z,12.32
2017-10-05T12:40:37.381Z,12.68
2017-10-05T12:41:38.107Z,13.37
2017-10-05T12:42:37.996Z,13.22
2017-10-05T12:43:38.214Z,13.22
2017-10-05T12:44:38.218Z,13.30
2017-10-05T12:45:37.861Z,13.97
2017-10-05T12:46:37.896Z,14.50
2017-10-05T12:47:37.970Z,14.94
2017-10-05T12:48:38.192Z,15.84
2017-10-05T12:49:37.927Z,16.49
2017-10-05T12:50:37.746Z,17.26
2017-10-05T12:51:38.072Z,17.63
2017-10-05T12:52:40.310Z,18.31